Madera, California
Current Conditions -  °F | °C
As of 11:53 AM on Thursday 18 Dec 2014 (Local Time) from KMAE Reporting Station
Clear Clear  
Wind Chill: 58°   Ceiling: Unl
Heat Index: 58°   Visibility: 10mi
Dew Point: 46°   Wind: 7mph
Humidity: 65%   Direction: 120°ESE
Pressure: 30.2"   Gusts: NA
Location:  36.96°N, 120.06°W
Report Text: KMAE 181953Z AUTO 12006KT 10SM CLR 14/08 A3020 RMK AO2 SLP225 T01440078
Loading
Personal Weather Stations






























Interactive Weather Map New forecast layout! Learn more

10-Day Weather Forecast

Advertisements
Track Severe Weather on mobile